Pacoima, California
Current Conditions -  °F | °C
As of 9:51 AM on Monday 24 Nov 2014 (Local Time) from KVNY Reporting Station
Clear Clear  
Wind Chill: 71°   Ceiling: Unl
Heat Index: 71°   Visibility: 10mi
Dew Point: 13°   Wind: 17mph
Humidity: 11%   Direction: 350°N
Pressure: 30.25"   Gusts: 28mph
Location:  34.26°N, 118.43°W
Report Text: KVNY 241751Z 35015G24KT 10SM CLR 22/M11 A3025 RMK AO2 SLP236 T02171106 10217 20156 53019
Loading
Personal Weather Stations






























Interactive Weather Map New forecast layout! Learn more

10-Day Weather Forecast

Advertisements
Track Severe Weather on mobile